sensor_id;sensor_type;location;lat;lon;timestamp;P1;durP1;ratioP1;P2;durP2;ratioP2
13672;SDS011;6909;52.202;9.876;2022-08-20T00:00:50;1.60;;;1.23;;
13672;SDS011;6909;52.202;9.876;2022-08-20T00:03:20;2.80;;;1.45;;
13672;SDS011;6909;52.202;9.876;2022-08-20T00:05:50;2.05;;;1.88;;
13672;SDS011;6909;52.202;9.876;2022-08-20T00:08:20;1.73;;;1.63;;
13672;SDS011;6909;52.202;9.876;2022-08-20T00:10:48;1.50;;;1.40;;
13672;SDS011;6909;52.202;9.876;2022-08-20T00:13:17;2.10;;;1.57;;
13672;SDS011;6909;52.202;9.876;2022-08-20T00:15:46;3.45;;;1.45;;
13672;SDS011;6909;52.202;9.876;2022-08-20T00:18:13;1.77;;;1.50;;
13672;SDS011;6909;52.202;9.876;2022-08-20T00:20:43;1.93;;;1.83;;
13672;SDS011;6909;52.202;9.876;2022-08-20T00:23:12;2.30;;;1.80;;
13672;SDS011;6909;52.202;9.876;2022-08-20T00:25:40;2.28;;;2.05;;
13672;SDS011;6909;52.202;9.876;2022-08-20T00:28:08;2.77;;;1.70;;
13672;SDS011;6909;52.202;9.876;2022-08-20T00:30:37;3.10;;;2.20;;
13672;SDS011;6909;52.202;9.876;2022-08-20T00:33:05;1.90;;;1.80;;
13672;SDS011;6909;52.202;9.876;2022-08-20T00:35:35;2.47;;;1.80;;
13672;SDS011;6909;52.202;9.876;2022-08-20T00:38:04;1.80;;;1.63;;
13672;SDS011;6909;52.202;9.876;2022-08-20T00:40:34;1.60;;;1.50;;
13672;SDS011;6909;52.202;9.876;2022-08-20T00:43:04;1.50;;;1.40;;
13672;SDS011;6909;52.202;9.876;2022-08-20T00:45:48;1.90;;;1.73;;
13672;SDS011;6909;52.202;9.876;2022-08-20T00:48:19;2.33;;;1.40;;
13672;SDS011;6909;52.202;9.876;2022-08-20T00:50:46;2.03;;;1.30;;
13672;SDS011;6909;52.202;9.876;2022-08-20T00:53:12;2.00;;;1.70;;
13672;SDS011;6909;52.202;9.876;2022-08-20T00:55:41;3.10;;;1.50;;
13672;SDS011;6909;52.202;9.876;2022-08-20T00:58:08;2.85;;;1.45;;
13672;SDS011;6909;52.202;9.876;2022-08-20T01:00:35;1.87;;;1.40;;
13672;SDS011;6909;52.202;9.876;2022-08-20T01:03:04;1.87;;;1.50;;
13672;SDS011;6909;52.202;9.876;2022-08-20T01:05:33;2.20;;;1.77;;
13672;SDS011;6909;52.202;9.876;2022-08-20T01:08:00;1.77;;;1.20;;
13672;SDS011;6909;52.202;9.876;2022-08-20T01:10:28;1.57;;;1.47;;
13672;SDS011;6909;52.202;9.876;2022-08-20T01:13:02;1.50;;;1.33;;
13672;SDS011;6909;52.202;9.876;2022-08-20T01:15:34;1.73;;;1.37;;
13672;SDS011;6909;52.202;9.876;2022-08-20T01:18:03;2.13;;;1.30;;
13672;SDS011;6909;52.202;9.876;2022-08-20T01:20:32;2.07;;;1.30;;
13672;SDS011;6909;52.202;9.876;2022-08-20T01:26:28;2.33;;;1.70;;
13672;SDS011;6909;52.202;9.876;2022-08-20T01:28:58;1.60;;;1.50;;
13672;SDS011;6909;52.202;9.876;2022-08-20T01:31:27;1.47;;;1.37;;
13672;SDS011;6909;52.202;9.876;2022-08-20T01:33:57;1.77;;;1.33;;
13672;SDS011;6909;52.202;9.876;2022-08-20T01:36:27;2.80;;;1.30;;
13672;SDS011;6909;52.202;9.876;2022-08-20T01:38:56;2.57;;;1.50;;
13672;SDS011;6909;52.202;9.876;2022-08-20T01:41:43;1.57;;;1.47;;
13672;SDS011;6909;52.202;9.876;2022-08-20T01:44:17;1.53;;;1.43;;
13672;SDS011;6909;52.202;9.876;2022-08-20T01:46:45;1.67;;;1.57;;
13672;SDS011;6909;52.202;9.876;2022-08-20T01:49:16;1.90;;;1.47;;
13672;SDS011;6909;52.202;9.876;2022-08-20T01:51:44;1.50;;;1.37;;
13672;SDS011;6909;52.202;9.876;2022-08-20T01:54:11;2.17;;;1.50;;
13672;SDS011;6909;52.202;9.876;2022-08-20T01:56:49;1.97;;;1.50;;
13672;SDS011;6909;52.202;9.876;2022-08-20T01:59:19;2.13;;;1.73;;
13672;SDS011;6909;52.202;9.876;2022-08-20T02:01:46;1.90;;;1.30;;
13672;SDS011;6909;52.202;9.876;2022-08-20T02:04:14;2.23;;;1.50;;
13672;SDS011;6909;52.202;9.876;2022-08-20T02:06:43;1.60;;;1.50;;
13672;SDS011;6909;52.202;9.876;2022-08-20T02:09:11;1.80;;;1.70;;
13672;SDS011;6909;52.202;9.876;2022-08-20T02:11:38;2.60;;;1.77;;
13672;SDS011;6909;52.202;9.876;2022-08-20T02:14:09;2.33;;;1.67;;
13672;SDS011;6909;52.202;9.876;2022-08-20T02:16:40;1.60;;;1.50;;
13672;SDS011;6909;52.202;9.876;2022-08-20T02:19:13;1.40;;;1.30;;
13672;SDS011;6909;52.202;9.876;2022-08-20T02:21:48;2.00;;;1.80;;
13672;SDS011;6909;52.202;9.876;2022-08-20T02:24:17;1.90;;;1.80;;
13672;SDS011;6909;52.202;9.876;2022-08-20T02:26:44;2.33;;;1.80;;
13672;SDS011;6909;52.202;9.876;2022-08-20T02:29:13;1.80;;;1.70;;
13672;SDS011;6909;52.202;9.876;2022-08-20T02:31:41;1.77;;;1.63;;
13672;SDS011;6909;52.202;9.876;2022-08-20T02:34:09;2.00;;;1.80;;
13672;SDS011;6909;52.202;9.876;2022-08-20T02:36:37;2.93;;;2.00;;
13672;SDS011;6909;52.202;9.876;2022-08-20T02:39:05;2.87;;;1.87;;
13672;SDS011;6909;52.202;9.876;2022-08-20T02:41:33;2.00;;;1.77;;
13672;SDS011;6909;52.202;9.876;2022-08-20T02:44:00;1.80;;;1.70;;
13672;SDS011;6909;52.202;9.876;2022-08-20T02:46:28;1.83;;;1.63;;
13672;SDS011;6909;52.202;9.876;2022-08-20T02:48:55;1.67;;;1.57;;
13672;SDS011;6909;52.202;9.876;2022-08-20T02:51:22;1.97;;;1.80;;
13672;SDS011;6909;52.202;9.876;2022-08-20T02:53:49;2.40;;;2.20;;
13672;SDS011;6909;52.202;9.876;2022-08-20T02:56:16;1.90;;;1.80;;
13672;SDS011;6909;52.202;9.876;2022-08-20T02:58:43;2.97;;;2.00;;
13672;SDS011;6909;52.202;9.876;2022-08-20T03:01:11;1.90;;;1.80;;
13672;SDS011;6909;52.202;9.876;2022-08-20T03:03:41;2.00;;;1.80;;
13672;SDS011;6909;52.202;9.876;2022-08-20T03:06:09;2.20;;;2.00;;
13672;SDS011;6909;52.202;9.876;2022-08-20T03:08:36;2.77;;;2.10;;
13672;SDS011;6909;52.202;9.876;2022-08-20T03:11:04;2.40;;;2.20;;
13672;SDS011;6909;52.202;9.876;2022-08-20T03:13:31;1.80;;;1.70;;
13672;SDS011;6909;52.202;9.876;2022-08-20T03:15:59;2.87;;;2.10;;
13672;SDS011;6909;52.202;9.876;2022-08-20T03:18:28;2.17;;;1.97;;
13672;SDS011;6909;52.202;9.876;2022-08-20T03:20:58;2.37;;;2.07;;
13672;SDS011;6909;52.202;9.876;2022-08-20T03:23:25;2.17;;;1.93;;
13672;SDS011;6909;52.202;9.876;2022-08-20T03:25:52;1.97;;;1.63;;
13672;SDS011;6909;52.202;9.876;2022-08-20T03:28:19;3.20;;;2.03;;
13672;SDS011;6909;52.202;9.876;2022-08-20T03:30:46;2.07;;;1.87;;
13672;SDS011;6909;52.202;9.876;2022-08-20T03:33:15;2.03;;;1.63;;
13672;SDS011;6909;52.202;9.876;2022-08-20T03:35:44;3.97;;;1.90;;
13672;SDS011;6909;52.202;9.876;2022-08-20T03:38:13;2.30;;;2.10;;
13672;SDS011;6909;52.202;9.876;2022-08-20T03:40:42;1.90;;;1.80;;
13672;SDS011;6909;52.202;9.876;2022-08-20T03:43:10;2.00;;;1.80;;
13672;SDS011;6909;52.202;9.876;2022-08-20T03:45:38;1.87;;;1.77;;
13672;SDS011;6909;52.202;9.876;2022-08-20T03:48:07;2.77;;;2.00;;
13672;SDS011;6909;52.202;9.876;2022-08-20T03:50:34;2.50;;;1.70;;
13672;SDS011;6909;52.202;9.876;2022-08-20T03:53:01;1.87;;;1.77;;
13672;SDS011;6909;52.202;9.876;2022-08-20T03:55:31;2.27;;;2.07;;
13672;SDS011;6909;52.202;9.876;2022-08-20T03:57:59;2.10;;;1.93;;
13672;SDS011;6909;52.202;9.876;2022-08-20T04:00:28;2.47;;;1.97;;
13672;SDS011;6909;52.202;9.876;2022-08-20T04:02:56;2.30;;;1.70;;
13672;SDS011;6909;52.202;9.876;2022-08-20T04:05:25;2.60;;;1.87;;
13672;SDS011;6909;52.202;9.876;2022-08-20T04:07:52;2.83;;;1.90;;
13672;SDS011;6909;52.202;9.876;2022-08-20T04:10:19;2.10;;;1.90;;
13672;SDS011;6909;52.202;9.876;2022-08-20T04:12:47;2.70;;;2.00;;
13672;SDS011;6909;52.202;9.876;2022-08-20T04:15:14;2.00;;;1.90;;
13672;SDS011;6909;52.202;9.876;2022-08-20T04:17:43;3.00;;;2.00;;
13672;SDS011;6909;52.202;9.876;2022-08-20T04:20:11;2.83;;;2.07;;
13672;SDS011;6909;52.202;9.876;2022-08-20T04:22:40;2.33;;;2.03;;
13672;SDS011;6909;52.202;9.876;2022-08-20T04:25:07;2.17;;;1.90;;
13672;SDS011;6909;52.202;9.876;2022-08-20T04:27:35;3.73;;;2.40;;
13672;SDS011;6909;52.202;9.876;2022-08-20T04:30:05;5.80;;;2.03;;
13672;SDS011;6909;52.202;9.876;2022-08-20T04:32:34;3.33;;;2.20;;
13672;SDS011;6909;52.202;9.876;2022-08-20T04:35:01;2.43;;;2.10;;
13672;SDS011;6909;52.202;9.876;2022-08-20T04:37:31;1.73;;;1.63;;
13672;SDS011;6909;52.202;9.876;2022-08-20T04:40:01;2.17;;;1.97;;
13672;SDS011;6909;52.202;9.876;2022-08-20T04:42:47;2.40;;;1.90;;
13672;SDS011;6909;52.202;9.876;2022-08-20T04:45:15;2.23;;;2.13;;
13672;SDS011;6909;52.202;9.876;2022-08-20T04:47:42;2.07;;;1.90;;
13672;SDS011;6909;52.202;9.876;2022-08-20T04:50:10;2.67;;;2.33;;
13672;SDS011;6909;52.202;9.876;2022-08-20T04:52:37;3.00;;;2.10;;
13672;SDS011;6909;52.202;9.876;2022-08-20T04:55:05;2.67;;;2.07;;
13672;SDS011;6909;52.202;9.876;2022-08-20T04:57:33;2.10;;;1.90;;
13672;SDS011;6909;52.202;9.876;2022-08-20T05:00:00;3.03;;;1.87;;
13672;SDS011;6909;52.202;9.876;2022-08-20T05:02:28;2.20;;;2.00;;
13672;SDS011;6909;52.202;9.876;2022-08-20T05:04:55;2.77;;;1.90;;
13672;SDS011;6909;52.202;9.876;2022-08-20T05:07:22;2.30;;;1.83;;
13672;SDS011;6909;52.202;9.876;2022-08-20T05:09:50;1.90;;;1.80;;
13672;SDS011;6909;52.202;9.876;2022-08-20T05:12:16;2.57;;;1.80;;
13672;SDS011;6909;52.202;9.876;2022-08-20T05:14:43;2.50;;;1.97;;
13672;SDS011;6909;52.202;9.876;2022-08-20T05:17:11;1.80;;;1.70;;
13672;SDS011;6909;52.202;9.876;2022-08-20T05:19:39;2.80;;;2.10;;
13672;SDS011;6909;52.202;9.876;2022-08-20T05:22:06;1.93;;;1.80;;
13672;SDS011;6909;52.202;9.876;2022-08-20T05:24:33;2.10;;;1.90;;
13672;SDS011;6909;52.202;9.876;2022-08-20T05:26:59;4.27;;;2.30;;
13672;SDS011;6909;52.202;9.876;2022-08-20T05:29:26;3.17;;;2.13;;
13672;SDS011;6909;52.202;9.876;2022-08-20T05:31:53;2.50;;;2.30;;
13672;SDS011;6909;52.202;9.876;2022-08-20T05:34:20;3.20;;;2.80;;
13672;SDS011;6909;52.202;9.876;2022-08-20T05:36:49;2.80;;;2.60;;
13672;SDS011;6909;52.202;9.876;2022-08-20T05:39:17;3.63;;;2.70;;
13672;SDS011;6909;52.202;9.876;2022-08-20T05:41:45;3.43;;;2.77;;
13672;SDS011;6909;52.202;9.876;2022-08-20T05:44:15;3.03;;;2.40;;
13672;SDS011;6909;52.202;9.876;2022-08-20T05:46:44;2.73;;;2.30;;
13672;SDS011;6909;52.202;9.876;2022-08-20T05:49:12;2.40;;;2.20;;
13672;SDS011;6909;52.202;9.876;2022-08-20T05:51:41;2.95;;;2.53;;
13672;SDS011;6909;52.202;9.876;2022-08-20T05:54:09;3.00;;;2.70;;
13672;SDS011;6909;52.202;9.876;2022-08-20T05:56:37;2.83;;;2.30;;
13672;SDS011;6909;52.202;9.876;2022-08-20T05:59:05;3.33;;;2.57;;
13672;SDS011;6909;52.202;9.876;2022-08-20T06:01:33;2.93;;;2.60;;
13672;SDS011;6909;52.202;9.876;2022-08-20T06:04:01;3.75;;;2.47;;
13672;SDS011;6909;52.202;9.876;2022-08-20T06:06:42;3.10;;;2.80;;
13672;SDS011;6909;52.202;9.876;2022-08-20T06:09:10;2.70;;;2.47;;
13672;SDS011;6909;52.202;9.876;2022-08-20T06:11:36;2.72;;;2.53;;
13672;SDS011;6909;52.202;9.876;2022-08-20T06:14:03;3.35;;;3.05;;
13672;SDS011;6909;52.202;9.876;2022-08-20T06:16:30;3.78;;;3.10;;
13672;SDS011;6909;52.202;9.876;2022-08-20T06:18:57;4.30;;;3.90;;
13672;SDS011;6909;52.202;9.876;2022-08-20T06:21:23;4.60;;;4.18;;
13672;SDS011;6909;52.202;9.876;2022-08-20T06:23:50;4.63;;;4.13;;
13672;SDS011;6909;52.202;9.876;2022-08-20T06:26:18;4.55;;;4.03;;
13672;SDS011;6909;52.202;9.876;2022-08-20T06:28:45;5.20;;;4.68;;
13672;SDS011;6909;52.202;9.876;2022-08-20T06:31:11;6.35;;;4.65;;
13672;SDS011;6909;52.202;9.876;2022-08-20T06:33:38;5.22;;;4.75;;
13672;SDS011;6909;52.202;9.876;2022-08-20T06:36:05;5.93;;;4.95;;
13672;SDS011;6909;52.202;9.876;2022-08-20T06:38:32;5.47;;;4.78;;
13672;SDS011;6909;52.202;9.876;2022-08-20T06:40:59;5.35;;;4.85;;
13672;SDS011;6909;52.202;9.876;2022-08-20T06:43:28;5.53;;;5.03;;
13672;SDS011;6909;52.202;9.876;2022-08-20T06:45:55;5.93;;;5.32;;
13672;SDS011;6909;52.202;9.876;2022-08-20T06:48:22;5.10;;;4.63;;
13672;SDS011;6909;52.202;9.876;2022-08-20T06:50:48;5.45;;;4.97;;
13672;SDS011;6909;52.202;9.876;2022-08-20T06:53:16;5.82;;;4.90;;
13672;SDS011;6909;52.202;9.876;2022-08-20T06:55:46;4.78;;;4.38;;
13672;SDS011;6909;52.202;9.876;2022-08-20T06:58:15;6.45;;;4.43;;
13672;SDS011;6909;52.202;9.876;2022-08-20T07:00:44;4.85;;;4.45;;
13672;SDS011;6909;52.202;9.876;2022-08-20T07:03:11;5.25;;;4.75;;
13672;SDS011;6909;52.202;9.876;2022-08-20T07:05:39;4.60;;;4.20;;
13672;SDS011;6909;52.202;9.876;2022-08-20T07:08:08;5.93;;;4.43;;
13672;SDS011;6909;52.202;9.876;2022-08-20T07:10:37;4.75;;;4.35;;
13672;SDS011;6909;52.202;9.876;2022-08-20T07:13:04;5.25;;;4.63;;
13672;SDS011;6909;52.202;9.876;2022-08-20T07:15:31;5.25;;;4.75;;
13672;SDS011;6909;52.202;9.876;2022-08-20T07:18:00;5.30;;;4.80;;
13672;SDS011;6909;52.202;9.876;2022-08-20T07:20:29;5.75;;;5.25;;
13672;SDS011;6909;52.202;9.876;2022-08-20T07:22:57;5.20;;;4.80;;
13672;SDS011;6909;52.202;9.876;2022-08-20T07:25:24;5.97;;;4.93;;
13672;SDS011;6909;52.202;9.876;2022-08-20T07:27:52;6.10;;;5.50;;
13672;SDS011;6909;52.202;9.876;2022-08-20T07:30:25;5.80;;;5.30;;
13672;SDS011;6909;52.202;9.876;2022-08-20T07:33:11;5.75;;;5.25;;
13672;SDS011;6909;52.202;9.876;2022-08-20T07:35:38;5.60;;;5.10;;
13672;SDS011;6909;52.202;9.876;2022-08-20T07:38:05;5.70;;;5.20;;
13672;SDS011;6909;52.202;9.876;2022-08-20T07:40:39;6.82;;;5.30;;
13672;SDS011;6909;52.202;9.876;2022-08-20T07:43:07;5.60;;;5.10;;
13672;SDS011;6909;52.202;9.876;2022-08-20T07:45:34;6.28;;;5.70;;
13672;SDS011;6909;52.202;9.876;2022-08-20T07:48:05;6.25;;;5.65;;
13672;SDS011;6909;52.202;9.876;2022-08-20T07:50:35;6.38;;;5.78;;
13672;SDS011;6909;52.202;9.876;2022-08-20T07:53:01;6.00;;;5.50;;
13672;SDS011;6909;52.202;9.876;2022-08-20T07:55:28;6.47;;;5.88;;
13672;SDS011;6909;52.202;9.876;2022-08-20T07:57:56;8.32;;;7.32;;
13672;SDS011;6909;52.202;9.876;2022-08-20T08:00:24;7.22;;;6.53;;
13672;SDS011;6909;52.202;9.876;2022-08-20T08:02:51;8.27;;;7.47;;
13672;SDS011;6909;52.202;9.876;2022-08-20T08:05:18;7.28;;;6.65;;
13672;SDS011;6909;52.202;9.876;2022-08-20T08:07:46;7.07;;;6.38;;
13672;SDS011;6909;52.202;9.876;2022-08-20T08:10:14;6.53;;;5.82;;
13672;SDS011;6909;52.202;9.876;2022-08-20T08:12:44;9.20;;;8.40;;
13672;SDS011;6909;52.202;9.876;2022-08-20T08:15:15;7.85;;;7.15;;
13672;SDS011;6909;52.202;9.876;2022-08-20T08:17:46;7.95;;;7.15;;
13672;SDS011;6909;52.202;9.876;2022-08-20T08:20:15;8.82;;;8.00;;
13672;SDS011;6909;52.202;9.876;2022-08-20T08:22:43;8.27;;;7.57;;
13672;SDS011;6909;52.202;9.876;2022-08-20T08:25:12;8.60;;;7.80;;
13672;SDS011;6909;52.202;9.876;2022-08-20T08:27:40;8.13;;;7.43;;
13672;SDS011;6909;52.202;9.876;2022-08-20T08:30:08;7.65;;;6.85;;
13672;SDS011;6909;52.202;9.876;2022-08-20T08:32:36;7.35;;;6.75;;
13672;SDS011;6909;52.202;9.876;2022-08-20T08:35:24;6.93;;;6.32;;
13672;SDS011;6909;52.202;9.876;2022-08-20T08:37:51;7.65;;;6.70;;
13672;SDS011;6909;52.202;9.876;2022-08-20T08:40:20;7.00;;;6.40;;
13672;SDS011;6909;52.202;9.876;2022-08-20T08:42:48;7.60;;;6.90;;
13672;SDS011;6909;52.202;9.876;2022-08-20T08:45:22;7.45;;;6.82;;
13672;SDS011;6909;52.202;9.876;2022-08-20T08:47:52;7.38;;;6.78;;
13672;SDS011;6909;52.202;9.876;2022-08-20T08:50:22;7.15;;;6.50;;
13672;SDS011;6909;52.202;9.876;2022-08-20T08:52:52;6.63;;;6.13;;
13672;SDS011;6909;52.202;9.876;2022-08-20T08:55:23;11.15;;;6.57;;
13672;SDS011;6909;52.202;9.876;2022-08-20T08:57:50;6.90;;;6.30;;
13672;SDS011;6909;52.202;9.876;2022-08-20T09:00:20;6.55;;;6.00;;
13672;SDS011;6909;52.202;9.876;2022-08-20T09:02:52;6.90;;;6.07;;
13672;SDS011;6909;52.202;9.876;2022-08-20T09:05:20;6.88;;;6.18;;
13672;SDS011;6909;52.202;9.876;2022-08-20T09:07:52;7.05;;;6.45;;
13672;SDS011;6909;52.202;9.876;2022-08-20T09:10:22;12.73;;;7.47;;
13672;SDS011;6909;52.202;9.876;2022-08-20T09:12:49;9.45;;;8.45;;
13672;SDS011;6909;52.202;9.876;2022-08-20T09:15:16;9.02;;;8.13;;
13672;SDS011;6909;52.202;9.876;2022-08-20T09:17:42;9.00;;;8.10;;
13672;SDS011;6909;52.202;9.876;2022-08-20T09:20:09;8.40;;;7.60;;
13672;SDS011;6909;52.202;9.876;2022-08-20T09:22:36;8.90;;;7.90;;
13672;SDS011;6909;52.202;9.876;2022-08-20T09:25:03;8.48;;;7.78;;
13672;SDS011;6909;52.202;9.876;2022-08-20T09:27:31;9.48;;;8.60;;
13672;SDS011;6909;52.202;9.876;2022-08-20T09:29:58;8.90;;;8.10;;
13672;SDS011;6909;52.202;9.876;2022-08-20T09:32:25;10.07;;;9.07;;
13672;SDS011;6909;52.202;9.876;2022-08-20T09:34:52;9.10;;;8.20;;
13672;SDS011;6909;52.202;9.876;2022-08-20T09:37:21;9.38;;;8.48;;
13672;SDS011;6909;52.202;9.876;2022-08-20T09:39:48;8.55;;;7.72;;
13672;SDS011;6909;52.202;9.876;2022-08-20T09:42:16;8.70;;;7.85;;
13672;SDS011;6909;52.202;9.876;2022-08-20T09:44:45;8.85;;;8.05;;
13672;SDS011;6909;52.202;9.876;2022-08-20T09:47:12;9.10;;;8.20;;
13672;SDS011;6909;52.202;9.876;2022-08-20T09:49:41;8.68;;;7.88;;
13672;SDS011;6909;52.202;9.876;2022-08-20T09:52:09;10.27;;;8.07;;
13672;SDS011;6909;52.202;9.876;2022-08-20T09:54:42;8.32;;;7.38;;
13672;SDS011;6909;52.202;9.876;2022-08-20T09:57:09;9.10;;;8.20;;
13672;SDS011;6909;52.202;9.876;2022-08-20T09:59:36;8.82;;;7.43;;
13672;SDS011;6909;52.202;9.876;2022-08-20T10:02:05;9.68;;;7.75;;
13672;SDS011;6909;52.202;9.876;2022-08-20T10:04:31;7.75;;;7.05;;
13672;SDS011;6909;52.202;9.876;2022-08-20T10:06:58;8.10;;;7.30;;
13672;SDS011;6909;52.202;9.876;2022-08-20T10:09:24;7.85;;;7.03;;
13672;SDS011;6909;52.202;9.876;2022-08-20T10:11:51;7.45;;;6.75;;
13672;SDS011;6909;52.202;9.876;2022-08-20T10:14:18;8.32;;;7.53;;
13672;SDS011;6909;52.202;9.876;2022-08-20T10:16:44;8.55;;;7.65;;
13672;SDS011;6909;52.202;9.876;2022-08-20T10:19:12;7.50;;;6.80;;
13672;SDS011;6909;52.202;9.876;2022-08-20T10:21:39;7.57;;;6.85;;
13672;SDS011;6909;52.202;9.876;2022-08-20T10:24:05;6.93;;;6.30;;
13672;SDS011;6909;52.202;9.876;2022-08-20T10:26:32;6.57;;;5.97;;
13672;SDS011;6909;52.202;9.876;2022-08-20T10:28:59;7.07;;;6.40;;
13672;SDS011;6909;52.202;9.876;2022-08-20T10:31:27;6.13;;;5.63;;
13672;SDS011;6909;52.202;9.876;2022-08-20T10:33:54;6.90;;;6.20;;
13672;SDS011;6909;52.202;9.876;2022-08-20T10:36:22;11.05;;;6.65;;
13672;SDS011;6909;52.202;9.876;2022-08-20T10:38:49;8.60;;;7.70;;
13672;SDS011;6909;52.202;9.876;2022-08-20T10:41:16;8.68;;;6.40;;
13672;SDS011;6909;52.202;9.876;2022-08-20T10:43:43;7.75;;;7.00;;
13672;SDS011;6909;52.202;9.876;2022-08-20T10:46:10;8.80;;;6.57;;
13672;SDS011;6909;52.202;9.876;2022-08-20T10:48:37;9.40;;;8.45;;
13672;SDS011;6909;52.202;9.876;2022-08-20T10:51:04;8.88;;;8.07;;
13672;SDS011;6909;52.202;9.876;2022-08-20T10:53:32;8.23;;;7.45;;
13672;SDS011;6909;52.202;9.876;2022-08-20T10:55:59;7.43;;;6.72;;
13672;SDS011;6909;52.202;9.876;2022-08-20T10:58:26;7.57;;;6.88;;
13672;SDS011;6909;52.202;9.876;2022-08-20T11:00:53;7.07;;;6.38;;
13672;SDS011;6909;52.202;9.876;2022-08-20T11:03:20;6.45;;;5.88;;
13672;SDS011;6909;52.202;9.876;2022-08-20T11:05:46;5.38;;;4.90;;
13672;SDS011;6909;52.202;9.876;2022-08-20T11:08:13;4.65;;;4.25;;
13672;SDS011;6909;52.202;9.876;2022-08-20T11:10:41;5.53;;;4.85;;
13672;SDS011;6909;52.202;9.876;2022-08-20T11:13:08;5.20;;;4.70;;
13672;SDS011;6909;52.202;9.876;2022-08-20T11:15:36;4.18;;;3.70;;
13672;SDS011;6909;52.202;9.876;2022-08-20T11:18:06;4.70;;;4.30;;
13672;SDS011;6909;52.202;9.876;2022-08-20T11:20:33;5.60;;;5.10;;
13672;SDS011;6909;52.202;9.876;2022-08-20T11:23:00;7.10;;;6.43;;
13672;SDS011;6909;52.202;9.876;2022-08-20T11:25:27;6.43;;;5.93;;
13672;SDS011;6909;52.202;9.876;2022-08-20T11:27:56;6.78;;;6.28;;
13672;SDS011;6909;52.202;9.876;2022-08-20T11:30:24;7.18;;;6.57;;
13672;SDS011;6909;52.202;9.876;2022-08-20T11:32:53;8.07;;;7.28;;
13672;SDS011;6909;52.202;9.876;2022-08-20T11:35:21;7.82;;;7.13;;
13672;SDS011;6909;52.202;9.876;2022-08-20T11:37:48;6.88;;;6.18;;
13672;SDS011;6909;52.202;9.876;2022-08-20T11:40:15;7.10;;;6.47;;
13672;SDS011;6909;52.202;9.876;2022-08-20T11:42:42;6.90;;;6.28;;
13672;SDS011;6909;52.202;9.876;2022-08-20T11:45:10;6.38;;;5.78;;
13672;SDS011;6909;52.202;9.876;2022-08-20T11:47:36;5.18;;;4.68;;
13672;SDS011;6909;52.202;9.876;2022-08-20T11:50:04;5.15;;;4.65;;
13672;SDS011;6909;52.202;9.876;2022-08-20T11:52:32;6.75;;;6.10;;
13672;SDS011;6909;52.202;9.876;2022-08-20T11:55:00;5.65;;;5.15;;
13672;SDS011;6909;52.202;9.876;2022-08-20T11:57:27;5.32;;;4.85;;
13672;SDS011;6909;52.202;9.876;2022-08-20T11:59:56;4.65;;;4.25;;
13672;SDS011;6909;52.202;9.876;2022-08-20T12:02:26;4.40;;;4.00;;
13672;SDS011;6909;52.202;9.876;2022-08-20T12:04:55;3.72;;;3.40;;
13672;SDS011;6909;52.202;9.876;2022-08-20T12:07:22;3.13;;;2.92;;
13672;SDS011;6909;52.202;9.876;2022-08-20T12:09:50;3.90;;;3.60;;
13672;SDS011;6909;52.202;9.876;2022-08-20T12:12:18;3.88;;;3.58;;
13672;SDS011;6909;52.202;9.876;2022-08-20T12:14:47;6.45;;;4.13;;
13672;SDS011;6909;52.202;9.876;2022-08-20T12:17:15;4.45;;;4.07;;
13672;SDS011;6909;52.202;9.876;2022-08-20T12:19:46;5.15;;;4.65;;
13672;SDS011;6909;52.202;9.876;2022-08-20T12:22:13;5.32;;;4.88;;
13672;SDS011;6909;52.202;9.876;2022-08-20T12:24:39;4.70;;;4.28;;
13672;SDS011;6909;52.202;9.876;2022-08-20T12:27:07;3.88;;;3.58;;
13672;SDS011;6909;52.202;9.876;2022-08-20T12:29:35;4.32;;;4.00;;
13672;SDS011;6909;52.202;9.876;2022-08-20T12:32:02;4.22;;;3.50;;
13672;SDS011;6909;52.202;9.876;2022-08-20T12:34:30;3.50;;;3.00;;
13672;SDS011;6909;52.202;9.876;2022-08-20T12:37:00;2.33;;;2.13;;
13672;SDS011;6909;52.202;9.876;2022-08-20T12:39:28;2.35;;;2.17;;
13672;SDS011;6909;52.202;9.876;2022-08-20T12:41:57;2.80;;;2.60;;
13672;SDS011;6909;52.202;9.876;2022-08-20T12:44:24;3.80;;;3.50;;
13672;SDS011;6909;52.202;9.876;2022-08-20T12:46:51;4.95;;;4.47;;
13672;SDS011;6909;52.202;9.876;2022-08-20T12:49:17;4.20;;;3.90;;
13672;SDS011;6909;52.202;9.876;2022-08-20T12:51:44;3.63;;;3.38;;
13672;SDS011;6909;52.202;9.876;2022-08-20T12:54:12;3.95;;;3.65;;
13672;SDS011;6909;52.202;9.876;2022-08-20T12:56:38;3.42;;;3.22;;
13672;SDS011;6909;52.202;9.876;2022-08-20T12:59:05;4.68;;;4.28;;
13672;SDS011;6909;52.202;9.876;2022-08-20T13:01:32;4.80;;;4.50;;
13672;SDS011;6909;52.202;9.876;2022-08-20T13:03:58;5.32;;;4.82;;
13672;SDS011;6909;52.202;9.876;2022-08-20T13:06:25;4.93;;;4.40;;
13672;SDS011;6909;52.202;9.876;2022-08-20T13:08:52;4.65;;;4.25;;
13672;SDS011;6909;52.202;9.876;2022-08-20T13:11:20;3.83;;;3.53;;
13672;SDS011;6909;52.202;9.876;2022-08-20T13:13:46;4.43;;;4.13;;
13672;SDS011;6909;52.202;9.876;2022-08-20T13:16:13;4.50;;;4.18;;
13672;SDS011;6909;52.202;9.876;2022-08-20T13:18:40;4.90;;;4.50;;
13672;SDS011;6909;52.202;9.876;2022-08-20T13:21:07;4.53;;;4.13;;
13672;SDS011;6909;52.202;9.876;2022-08-20T13:23:34;5.45;;;5.05;;
13672;SDS011;6909;52.202;9.876;2022-08-20T13:26:01;5.63;;;4.40;;
13672;SDS011;6909;52.202;9.876;2022-08-20T13:28:30;4.57;;;4.18;;
13672;SDS011;6909;52.202;9.876;2022-08-20T13:30:57;4.35;;;4.05;;
13672;SDS011;6909;52.202;9.876;2022-08-20T13:33:25;5.30;;;4.80;;
13672;SDS011;6909;52.202;9.876;2022-08-20T13:35:52;4.80;;;4.40;;
13672;SDS011;6909;52.202;9.876;2022-08-20T13:38:19;3.10;;;2.90;;
13672;SDS011;6909;52.202;9.876;2022-08-20T13:40:46;3.28;;;2.97;;
13672;SDS011;6909;52.202;9.876;2022-08-20T13:43:13;3.38;;;3.08;;
13672;SDS011;6909;52.202;9.876;2022-08-20T13:45:41;2.50;;;2.30;;
13672;SDS011;6909;52.202;9.876;2022-08-20T13:48:08;3.38;;;2.75;;
13672;SDS011;6909;52.202;9.876;2022-08-20T13:50:35;2.95;;;2.70;;
13672;SDS011;6909;52.202;9.876;2022-08-20T13:53:02;2.83;;;2.63;;
13672;SDS011;6909;52.202;9.876;2022-08-20T13:55:29;2.08;;;1.98;;
13672;SDS011;6909;52.202;9.876;2022-08-20T13:57:56;1.92;;;1.83;;
13672;SDS011;6909;52.202;9.876;2022-08-20T14:00:23;2.80;;;2.40;;
13672;SDS011;6909;52.202;9.876;2022-08-20T14:02:53;2.70;;;2.50;;
13672;SDS011;6909;52.202;9.876;2022-08-20T14:05:20;2.70;;;2.50;;
13672;SDS011;6909;52.202;9.876;2022-08-20T14:07:47;2.53;;;2.22;;
13672;SDS011;6909;52.202;9.876;2022-08-20T14:10:15;2.70;;;2.50;;
13672;SDS011;6909;52.202;9.876;2022-08-20T14:12:44;2.70;;;2.17;;
13672;SDS011;6909;52.202;9.876;2022-08-20T14:15:11;2.38;;;2.13;;
13672;SDS011;6909;52.202;9.876;2022-08-20T14:17:38;2.05;;;1.95;;
13672;SDS011;6909;52.202;9.876;2022-08-20T14:20:09;2.80;;;2.60;;
13672;SDS011;6909;52.202;9.876;2022-08-20T14:22:38;2.78;;;2.58;;
13672;SDS011;6909;52.202;9.876;2022-08-20T14:25:05;2.53;;;2.33;;
13672;SDS011;6909;52.202;9.876;2022-08-20T14:27:33;2.80;;;2.58;;
13672;SDS011;6909;52.202;9.876;2022-08-20T14:30:01;2.42;;;2.22;;
13672;SDS011;6909;52.202;9.876;2022-08-20T14:32:29;3.00;;;2.80;;
13672;SDS011;6909;52.202;9.876;2022-08-20T14:34:55;2.67;;;2.55;;
13672;SDS011;6909;52.202;9.876;2022-08-20T14:37:25;2.92;;;2.72;;
13672;SDS011;6909;52.202;9.876;2022-08-20T14:39:54;3.25;;;3.05;;
13672;SDS011;6909;52.202;9.876;2022-08-20T14:42:22;3.50;;;3.30;;
13672;SDS011;6909;52.202;9.876;2022-08-20T14:44:52;3.78;;;3.08;;
13672;SDS011;6909;52.202;9.876;2022-08-20T14:47:20;3.60;;;3.30;;
13672;SDS011;6909;52.202;9.876;2022-08-20T14:49:48;2.90;;;2.70;;
13672;SDS011;6909;52.202;9.876;2022-08-20T14:52:17;3.08;;;2.88;;
13672;SDS011;6909;52.202;9.876;2022-08-20T14:54:46;2.75;;;2.55;;
13672;SDS011;6909;52.202;9.876;2022-08-20T14:57:14;3.03;;;2.80;;
13672;SDS011;6909;52.202;9.876;2022-08-20T14:59:43;3.22;;;2.70;;
13672;SDS011;6909;52.202;9.876;2022-08-20T15:02:11;2.85;;;2.65;;
13672;SDS011;6909;52.202;9.876;2022-08-20T15:04:40;2.55;;;2.45;;
13672;SDS011;6909;52.202;9.876;2022-08-20T15:07:12;3.53;;;2.83;;
13672;SDS011;6909;52.202;9.876;2022-08-20T15:09:41;2.88;;;2.60;;